createdAt,value
2017-10-17T00:00:20.058Z,71.96
2017-10-17T00:01:25.511Z,71.95
2017-10-17T00:02:31.704Z,72.06
2017-10-17T00:03:37.020Z,72.06
2017-10-17T00:04:42.109Z,71.98
2017-10-17T00:05:47.988Z,71.84
2017-10-17T00:06:53.094Z,71.66
2017-10-17T00:07:58.998Z,71.62
2017-10-17T00:09:03.659Z,71.58
2017-10-17T00:10:08.518Z,71.51
2017-10-17T00:11:13.723Z,71.39
2017-10-17T00:12:18.868Z,71.41
2017-10-17T00:13:23.965Z,71.29
2017-10-17T00:14:29.101Z,71.22
2017-10-17T00:15:34.268Z,71.15
2017-10-17T00:16:39.376Z,71.11
2017-10-17T00:17:44.484Z,71.12
2017-10-17T00:18:49.565Z,71.10
2017-10-17T00:19:54.385Z,71.01
2017-10-17T00:20:59.477Z,70.93
2017-10-17T00:22:04.921Z,70.89
2017-10-17T00:23:09.781Z,70.84
2017-10-17T00:24:15.393Z,70.65
2017-10-17T00:25:20.469Z,70.70
2017-10-17T00:26:25.867Z,70.65
2017-10-17T00:27:30.745Z,70.71
2017-10-17T00:28:35.852Z,70.71
2017-10-17T00:29:40.925Z,70.70
2017-10-17T00:30:46.519Z,70.71
2017-10-17T00:31:51.496Z,70.78
2017-10-17T00:33:00.968Z,71.00
2017-10-17T00:34:05.824Z,70.93
2017-10-17T00:35:30.800Z,71.05
2017-10-17T00:36:35.630Z,71.19
2017-10-17T00:37:40.873Z,71.12
2017-10-17T00:38:49.181Z,71.21
2017-10-17T00:39:54.793Z,71.44
2017-10-17T00:40:59.619Z,71.76
2017-10-17T00:42:04.708Z,72.40
2017-10-17T00:43:22.892Z,72.75
2017-10-17T00:44:28.032Z,73.38
2017-10-17T00:45:33.269Z,73.63
2017-10-17T00:46:39.362Z,73.85
2017-10-17T00:47:44.285Z,73.90
2017-10-17T00:48:49.132Z,73.73
2017-10-17T00:49:54.233Z,74.08
2017-10-17T00:51:00.516Z,74.30
2017-10-17T00:52:06.051Z,74.16
2017-10-17T00:53:10.877Z,73.94
2017-10-17T00:54:15.700Z,73.89
2017-10-17T00:55:20.525Z,73.85
2017-10-17T00:56:26.020Z,73.82
2017-10-17T00:57:30.982Z,73.84
2017-10-17T00:58:36.327Z,73.70
2017-10-17T00:59:42.352Z,73.71
2017-10-17T01:00:47.577Z,73.80
2017-10-17T01:01:52.492Z,73.80
2017-10-17T01:02:57.609Z,73.69
2017-10-17T01:04:02.745Z,73.59
2017-10-17T01:05:07.809Z,73.63
2017-10-17T01:06:13.641Z,73.53
2017-10-17T01:07:19.336Z,73.52
2017-10-17T01:08:24.160Z,73.42
2017-10-17T01:09:29.256Z,73.33
2017-10-17T01:10:34.383Z,73.31
2017-10-17T01:11:39.492Z,73.25
2017-10-17T01:12:45.529Z,73.19
2017-10-17T01:13:51.445Z,73.16
2017-10-17T01:14:56.534Z,73.17
2017-10-17T01:16:01.654Z,72.97
2017-10-17T01:17:06.840Z,72.92
2017-10-17T01:18:12.265Z,72.80
2017-10-17T01:19:17.348Z,72.82
2017-10-17T01:20:24.602Z,72.89
2017-10-17T01:21:30.610Z,72.71
2017-10-17T01:22:35.497Z,72.77
2017-10-17T01:23:47.929Z,72.76
2017-10-17T01:24:52.834Z,72.71
2017-10-17T01:26:04.188Z,72.70
2017-10-17T01:27:09.317Z,72.70
2017-10-17T01:28:14.176Z,72.73
2017-10-17T01:29:19.036Z,72.92
2017-10-17T01:30:24.655Z,73.18
2017-10-17T01:31:30.072Z,73.26
2017-10-17T01:32:35.190Z,73.29
2017-10-17T01:33:40.037Z,73.30
2017-10-17T01:34:47.252Z,73.36
2017-10-17T01:35:52.349Z,73.48
2017-10-17T01:36:58.259Z,73.42
2017-10-17T01:39:59.714Z,73.63
2017-10-17T01:41:04.538Z,73.63
2017-10-17T01:42:09.357Z,73.58
2017-10-17T01:43:14.848Z,73.66
2017-10-17T01:44:26.174Z,73.61
2017-10-17T01:45:35.020Z,73.63
2017-10-17T01:46:54.849Z,73.69
2017-10-17T01:48:00.817Z,73.83
2017-10-17T01:49:10.594Z,73.89
2017-10-17T01:50:19.682Z,73.88
2017-10-17T01:51:27.074Z,73.98
2017-10-17T01:52:31.895Z,74.00
2017-10-17T01:53:43.858Z,74.20
2017-10-17T01:55:01.449Z,74.22
2017-10-17T01:56:07.680Z,74.29
2017-10-17T01:57:12.800Z,74.29
2017-10-17T01:58:22.897Z,74.34
2017-10-17T01:59:35.196Z,74.44
2017-10-17T02:00:40.782Z,74.63
2017-10-17T02:01:45.909Z,74.59
2017-10-17T02:02:51.013Z,74.61
2017-10-17T02:03:56.123Z,74.68
2017-10-17T02:05:02.373Z,74.66
2017-10-17T02:06:08.209Z,74.65
2017-10-17T02:07:14.584Z,74.90
2017-10-17T02:08:20.181Z,74.97
2017-10-17T02:09:25.248Z,74.98
2017-10-17T02:10:30.372Z,75.11
2017-10-17T02:11:35.501Z,75.11
2017-10-17T02:12:40.881Z,75.30
2017-10-17T02:13:46.032Z,75.36
2017-10-17T02:14:50.861Z,75.22
2017-10-17T02:15:56.770Z,75.30
2017-10-17T02:17:01.845Z,75.36
2017-10-17T02:19:41.896Z,75.60
2017-10-17T02:20:47.026Z,75.57
2017-10-17T02:21:59.692Z,75.55
2017-10-17T02:23:04.510Z,75.60
2017-10-17T02:24:10.733Z,75.50
2017-10-17T02:25:19.934Z,75.58
2017-10-17T02:26:26.688Z,75.59
2017-10-17T02:27:32.266Z,75.54
2017-10-17T02:28:42.725Z,75.50
2017-10-17T02:30:02.081Z,75.68
2017-10-17T02:31:06.929Z,75.78
2017-10-17T02:32:12.307Z,75.75
2017-10-17T02:33:19.914Z,75.72
2017-10-17T02:35:56.650Z,75.78
2017-10-17T02:37:02.596Z,75.76
2017-10-17T02:38:08.243Z,75.84
2017-10-17T02:39:14.153Z,75.75
2017-10-17T02:40:19.323Z,75.89
2017-10-17T02:41:25.589Z,75.99
2017-10-17T02:42:30.474Z,76.13
2017-10-17T02:43:39.682Z,75.97
2017-10-17T02:44:44.844Z,75.94
2017-10-17T02:45:50.756Z,76.06
2017-10-17T02:46:59.356Z,76.02
2017-10-17T02:48:09.101Z,76.15
2017-10-17T02:49:27.207Z,76.23
2017-10-17T02:50:32.058Z,76.12
2017-10-17T02:51:37.210Z,76.09
2017-10-17T02:52:43.839Z,76.19
2017-10-17T02:53:49.033Z,76.09
2017-10-17T02:54:53.928Z,76.36
2017-10-17T02:55:59.088Z,76.46
2017-10-17T02:57:04.244Z,76.42
2017-10-17T02:58:10.532Z,76.30
2017-10-17T02:59:16.916Z,76.19
2017-10-17T03:00:21.771Z,76.11
2017-10-17T03:01:50.148Z,76.20
2017-10-17T03:02:55.003Z,76.42
2017-10-17T03:04:00.634Z,76.50
2017-10-17T03:05:08.824Z,76.59
2017-10-17T03:06:13.791Z,76.58
2017-10-17T03:07:18.689Z,76.78
2017-10-17T03:08:24.599Z,76.96
2017-10-17T03:09:29.750Z,76.99
2017-10-17T03:10:36.015Z,77.07
2017-10-17T03:11:41.103Z,77.24
2017-10-17T03:12:46.239Z,77.25
2017-10-17T03:14:20.303Z,77.34
2017-10-17T03:17:02.057Z,77.68
2017-10-17T03:18:11.286Z,77.74
2017-10-17T03:19:16.431Z,77.74
2017-10-17T03:20:22.806Z,77.76
2017-10-17T03:21:43.893Z,77.82
2017-10-17T03:22:48.550Z,77.79
2017-10-17T03:24:00.713Z,77.69
2017-10-17T03:25:18.749Z,77.68
2017-10-17T03:26:24.862Z,77.63
2017-10-17T03:27:29.733Z,77.58
2017-10-17T03:28:39.421Z,77.49
2017-10-17T03:29:45.118Z,77.60
2017-10-17T03:30:50.564Z,77.68
2017-10-17T03:31:56.489Z,77.71
2017-10-17T03:33:06.394Z,77.65
2017-10-17T03:34:24.019Z,77.74
2017-10-17T03:35:29.170Z,77.83
2017-10-17T03:36:41.308Z,77.78
2017-10-17T03:38:10.624Z,77.71
2017-10-17T03:39:15.457Z,78.01
2017-10-17T03:40:25.891Z,77.82
2017-10-17T03:41:35.122Z,77.90
2017-10-17T03:42:40.002Z,78.01
2017-10-17T03:43:54.653Z,77.95
2017-10-17T03:45:03.901Z,78.11
2017-10-17T03:46:08.760Z,78.10
2017-10-17T03:47:14.974Z,78.06
2017-10-17T03:48:20.470Z,77.94
2017-10-17T03:49:38.816Z,78.00
2017-10-17T03:50:44.711Z,78.05
2017-10-17T03:51:51.868Z,78.06
2017-10-17T03:53:05.653Z,78.10
2017-10-17T03:54:12.031Z,78.29
2017-10-17T03:55:17.700Z,78.26
2017-10-17T03:56:26.003Z,78.27
2017-10-17T03:57:30.880Z,78.31
2017-10-17T03:58:51.900Z,78.21
2017-10-17T04:00:00.024Z,78.14
2017-10-17T04:01:04.911Z,78.21
2017-10-17T04:02:10.856Z,78.22
2017-10-17T04:03:16.469Z,78.40
2017-10-17T04:06:09.245Z,78.62
2017-10-17T04:09:06.289Z,78.78
2017-10-17T04:11:52.854Z,78.97
2017-10-17T04:13:12.297Z,78.86
2017-10-17T04:14:34.627Z,78.84
2017-10-17T04:15:39.733Z,78.87
2017-10-17T04:17:09.984Z,78.92
2017-10-17T04:18:29.984Z,78.99
2017-10-17T04:19:40.953Z,79.06
2017-10-17T04:20:46.555Z,78.99
2017-10-17T04:23:33.454Z,78.93
2017-10-17T04:24:42.809Z,79.00
2017-10-17T04:26:01.832Z,78.99
2017-10-17T04:30:21.843Z,79.09
2017-10-17T04:31:42.024Z,79.04
2017-10-17T04:33:06.101Z,79.07
2017-10-17T04:34:20.538Z,79.17
2017-10-17T04:35:25.312Z,79.15
2017-10-17T04:36:47.392Z,79.16
2017-10-17T04:37:52.245Z,79.34
2017-10-17T04:38:57.852Z,79.32
2017-10-17T04:40:13.381Z,79.17
2017-10-17T04:41:22.912Z,79.13
2017-10-17T04:42:56.185Z,79.08
2017-10-17T04:46:12.893Z,79.46
2017-10-17T04:47:20.337Z,79.44
2017-10-17T04:50:55.215Z,79.60
2017-10-17T04:52:03.339Z,79.83
2017-10-17T04:53:15.494Z,79.90
2017-10-17T04:54:29.128Z,79.94
2017-10-17T04:55:54.483Z,79.94
2017-10-17T04:57:03.812Z,80.06
2017-10-17T04:58:08.635Z,80.16
2017-10-17T05:00:51.422Z,80.32
2017-10-17T05:02:00.384Z,80.52
2017-10-17T05:03:08.516Z,80.59
2017-10-17T05:06:11.339Z,80.98
2017-10-17T05:09:14.376Z,80.96
2017-10-17T05:10:49.067Z,81.04
2017-10-17T05:11:54.318Z,81.15
2017-10-17T05:14:40.859Z,81.44
2017-10-17T05:15:55.901Z,81.33
2017-10-17T05:18:51.892Z,81.34
2017-10-17T05:20:04.972Z,81.19
2017-10-17T05:21:10.056Z,80.94
2017-10-17T05:22:17.980Z,80.82
2017-10-17T05:23:28.304Z,80.83
2017-10-17T05:24:34.504Z,80.96
2017-10-17T05:25:39.444Z,80.86
2017-10-17T05:26:45.037Z,80.80
2017-10-17T05:29:25.489Z,81.00
2017-10-17T05:30:49.724Z,81.00
2017-10-17T05:31:56.100Z,81.08
2017-10-17T05:34:51.594Z,81.21
2017-10-17T05:35:56.463Z,81.11
2017-10-17T05:37:13.029Z,81.03
2017-10-17T05:38:18.661Z,80.97
2017-10-17T05:39:24.299Z,80.94
2017-10-17T05:40:30.217Z,80.89
2017-10-17T05:41:35.417Z,80.81
2017-10-17T05:42:41.108Z,80.74
2017-10-17T05:45:38.808Z,81.16
2017-10-17T05:46:44.503Z,81.23
2017-10-17T05:47:49.380Z,81.09
2017-10-17T05:49:14.762Z,81.07
2017-10-17T05:50:36.945Z,81.05
2017-10-17T05:51:42.061Z,81.27
2017-10-17T05:52:47.611Z,81.27
2017-10-17T05:53:53.386Z,81.15
2017-10-17T05:54:59.167Z,81.01
2017-10-17T05:56:04.949Z,80.90
2017-10-17T05:57:11.507Z,80.81
2017-10-17T05:58:17.144Z,80.80
2017-10-17T05:59:22.922Z,80.82
2017-10-17T06:00:28.700Z,80.78
2017-10-17T06:01:34.292Z,80.75
2017-10-17T06:02:40.085Z,80.73
2017-10-17T06:03:45.712Z,80.75
2017-10-17T06:04:51.504Z,80.71
2017-10-17T06:05:58.055Z,80.75
2017-10-17T06:07:03.839Z,80.64
2017-10-17T06:08:09.629Z,80.52
2017-10-17T06:09:16.940Z,80.44
2017-10-17T06:10:22.726Z,80.47
2017-10-17T06:11:28.502Z,80.33
2017-10-17T06:12:34.296Z,80.25
2017-10-17T06:13:40.079Z,80.25
2017-10-17T06:14:45.965Z,80.21
2017-10-17T06:15:51.569Z,80.17
2017-10-17T06:16:58.124Z,80.10
2017-10-17T06:18:03.907Z,80.32
2017-10-17T06:19:09.701Z,80.31
2017-10-17T06:20:17.053Z,80.30
2017-10-17T06:21:22.659Z,80.31
2017-10-17T06:22:28.452Z,80.17
2017-10-17T06:23:34.249Z,80.06
2017-10-17T06:24:39.851Z,80.03
2017-10-17T06:25:45.730Z,79.95
2017-10-17T06:26:51.514Z,79.86
2017-10-17T06:27:57.304Z,79.83
2017-10-17T06:29:03.100Z,79.87
2017-10-17T06:30:08.892Z,79.74
2017-10-17T06:31:14.712Z,79.59
2017-10-17T06:32:20.503Z,79.50
2017-10-17T06:33:25.950Z,79.42
2017-10-17T06:34:31.747Z,79.32
2017-10-17T06:35:38.311Z,79.23
2017-10-17T06:36:44.891Z,79.19
2017-10-17T06:37:50.693Z,79.14
2017-10-17T06:38:57.062Z,79.07
2017-10-17T06:40:03.606Z,79.03
2017-10-17T06:41:10.163Z,78.95
2017-10-17T06:42:15.976Z,78.90
2017-10-17T06:43:22.608Z,78.92
2017-10-17T06:44:28.387Z,78.84
2017-10-17T06:45:34.181Z,78.96
2017-10-17T06:46:40.364Z,78.87
2017-10-17T06:47:46.004Z,78.80
2017-10-17T06:48:51.790Z,78.75
2017-10-17T06:49:57.565Z,78.73
2017-10-17T06:51:03.026Z,78.65
2017-10-17T06:52:08.826Z,78.39
2017-10-17T06:53:15.404Z,78.44
2017-10-17T06:54:20.859Z,78.26
2017-10-17T06:55:26.659Z,78.09
2017-10-17T06:56:33.243Z,77.93
2017-10-17T06:57:39.037Z,77.81
2017-10-17T06:58:44.857Z,77.72
2017-10-17T06:59:50.639Z,77.63
2017-10-17T07:00:57.185Z,77.62
2017-10-17T07:02:02.969Z,77.53
2017-10-17T07:03:08.760Z,77.43
2017-10-17T07:04:14.571Z,77.40
2017-10-17T07:05:20.397Z,77.26
2017-10-17T07:06:26.179Z,77.08
2017-10-17T07:07:31.976Z,76.90
2017-10-17T07:08:37.766Z,76.73
2017-10-17T07:09:43.583Z,76.65
2017-10-17T07:10:49.369Z,76.66
2017-10-17T07:11:55.172Z,76.62
2017-10-17T07:13:00.958Z,76.63
2017-10-17T07:14:07.517Z,76.56
2017-10-17T07:15:13.321Z,76.56
2017-10-17T07:16:19.104Z,76.53
2017-10-17T07:17:24.885Z,76.54
2017-10-17T07:18:30.689Z,76.46
2017-10-17T07:19:37.980Z,76.39
2017-10-17T07:20:44.551Z,76.28
2017-10-17T07:21:50.343Z,76.16
2017-10-17T07:22:56.184Z,76.09
2017-10-17T07:24:01.640Z,75.95
2017-10-17T07:25:08.064Z,75.94
2017-10-17T07:26:14.907Z,75.78
2017-10-17T07:27:20.519Z,75.65
2017-10-17T07:28:27.080Z,75.50
2017-10-17T07:29:33.107Z,75.42
2017-10-17T07:30:38.908Z,75.26
2017-10-17T07:31:44.729Z,74.88
2017-10-17T07:32:50.521Z,74.57
2017-10-17T07:33:56.316Z,74.44
2017-10-17T07:35:02.307Z,73.94
2017-10-17T07:36:08.539Z,73.41
2017-10-17T07:37:14.356Z,72.88
2017-10-17T07:38:20.145Z,72.17
2017-10-17T07:39:25.934Z,71.36
2017-10-17T07:40:32.495Z,70.32
2017-10-17T07:41:39.048Z,69.08
2017-10-17T07:42:45.631Z,67.77
2017-10-17T07:43:51.411Z,66.21
2017-10-17T07:44:57.188Z,64.26
2017-10-17T07:46:03.757Z,62.61
2017-10-17T07:47:10.318Z,60.85
2017-10-17T07:48:16.723Z,59.15
2017-10-17T07:49:22.495Z,57.92
2017-10-17T07:50:28.116Z,56.87
2017-10-17T07:51:33.906Z,55.99
2017-10-17T07:52:39.683Z,55.01
2017-10-17T07:53:45.488Z,54.20
2017-10-17T07:54:51.301Z,53.20
2017-10-17T07:55:57.075Z,52.34
2017-10-17T07:57:02.677Z,51.47
2017-10-17T07:58:09.240Z,50.72
2017-10-17T07:59:15.814Z,49.57
2017-10-17T08:00:22.309Z,49.18
2017-10-17T08:01:28.117Z,48.53
2017-10-17T08:02:33.941Z,47.95
2017-10-17T08:03:39.729Z,47.40
2017-10-17T08:04:45.391Z,46.76
2017-10-17T08:05:50.514Z,46.34
2017-10-17T08:06:56.135Z,45.75
2017-10-17T08:08:01.504Z,45.11
2017-10-17T08:09:07.141Z,44.53
2017-10-17T08:10:12.945Z,44.27
2017-10-17T08:11:18.720Z,43.94
2017-10-17T08:12:24.334Z,43.61
2017-10-17T08:13:30.107Z,43.29
2017-10-17T08:14:35.903Z,42.88
2017-10-17T08:15:41.717Z,42.79
2017-10-17T08:16:47.501Z,42.41
2017-10-17T08:17:53.283Z,42.45
2017-10-17T08:18:59.065Z,42.27
2017-10-17T08:20:05.630Z,41.90
2017-10-17T08:21:12.229Z,41.49
2017-10-17T08:22:18.297Z,41.62
2017-10-17T08:23:24.098Z,41.53
2017-10-17T08:24:29.877Z,41.22
2017-10-17T08:25:35.680Z,40.50
2017-10-17T08:26:41.498Z,40.20
2017-10-17T08:27:48.063Z,40.26
2017-10-17T08:28:54.635Z,40.07
2017-10-17T08:30:00.431Z,39.82
2017-10-17T08:31:06.231Z,39.78
2017-10-17T08:32:12.059Z,40.01
2017-10-17T08:33:17.851Z,39.59
2017-10-17T08:34:23.636Z,39.47
2017-10-17T08:35:30.192Z,39.49
2017-10-17T08:36:36.767Z,39.19
2017-10-17T08:37:42.245Z,38.71
2017-10-17T08:38:47.857Z,38.05
2017-10-17T08:39:53.649Z,38.32
2017-10-17T08:40:59.436Z,38.17
2017-10-17T08:42:05.239Z,37.72
2017-10-17T08:43:11.061Z,37.18
2017-10-17T08:44:17.257Z,37.51
2017-10-17T08:45:23.829Z,37.45
2017-10-17T08:46:29.662Z,37.39
2017-10-17T08:47:35.320Z,37.20
2017-10-17T08:48:41.145Z,36.87
2017-10-17T08:49:46.769Z,36.78
2017-10-17T08:50:53.163Z,36.46
2017-10-17T08:51:58.789Z,36.71
2017-10-17T08:53:04.432Z,36.29
2017-10-17T08:54:10.102Z,36.23
2017-10-17T08:55:15.818Z,36.14
2017-10-17T08:56:21.729Z,35.96
2017-10-17T08:57:28.098Z,36.22
2017-10-17T08:58:33.885Z,36.27
2017-10-17T08:59:39.522Z,35.81
2017-10-17T09:00:45.334Z,35.61
2017-10-17T09:01:51.136Z,35.84
2017-10-17T09:02:56.940Z,35.48
2017-10-17T09:04:02.732Z,35.63
2017-10-17T09:05:09.321Z,35.26
2017-10-17T09:06:15.142Z,35.39
2017-10-17T09:07:21.698Z,35.59
2017-10-17T09:08:28.882Z,35.04
2017-10-17T09:09:35.446Z,35.05
2017-10-17T09:10:42.044Z,35.15
2017-10-17T09:11:47.657Z,34.51
2017-10-17T09:12:53.439Z,33.79
2017-10-17T09:13:59.238Z,33.47
2017-10-17T09:15:04.690Z,33.54
2017-10-17T09:16:10.745Z,33.28
2017-10-17T09:17:16.541Z,33.55
2017-10-17T09:18:22.928Z,33.43
2017-10-17T09:19:28.728Z,33.20
2017-10-17T09:20:36.017Z,33.25
2017-10-17T09:21:42.593Z,33.67
2017-10-17T09:22:49.151Z,33.55
2017-10-17T09:23:55.557Z,32.76
2017-10-17T09:25:01.349Z,33.21
2017-10-17T09:26:08.700Z,33.62
2017-10-17T09:27:15.366Z,34.25
2017-10-17T09:28:22.179Z,34.14
2017-10-17T09:30:38.574Z,34.39
2017-10-17T09:31:44.827Z,34.34
2017-10-17T09:32:51.080Z,34.29
2017-10-17T09:33:57.131Z,34.36
2017-10-17T09:35:03.192Z,34.61
2017-10-17T09:36:09.432Z,34.45
2017-10-17T09:37:15.374Z,34.30
2017-10-17T09:38:21.353Z,34.20
2017-10-17T09:39:27.188Z,34.28
2017-10-17T09:40:32.789Z,34.70
2017-10-17T09:41:38.444Z,35.19
2017-10-17T09:42:44.485Z,35.46
2017-10-17T09:43:50.365Z,35.64
2017-10-17T09:44:56.192Z,35.89
2017-10-17T09:46:01.991Z,36.54
2017-10-17T09:47:08.548Z,36.40
2017-10-17T09:48:15.096Z,36.95
2017-10-17T09:49:20.964Z,37.19
2017-10-17T09:50:27.530Z,36.64
2017-10-17T09:51:34.106Z,36.76
2017-10-17T09:52:39.928Z,36.57
2017-10-17T09:53:46.318Z,36.78
2017-10-17T09:54:52.197Z,36.86
2017-10-17T09:55:59.017Z,37.39
2017-10-17T09:57:04.809Z,37.84
2017-10-17T09:58:10.593Z,38.16
2017-10-17T09:59:16.446Z,38.54
2017-10-17T10:00:22.362Z,39.05
2017-10-17T10:01:28.736Z,39.20
2017-10-17T10:02:34.535Z,39.41
2017-10-17T10:03:40.320Z,39.69
2017-10-17T10:04:45.952Z,39.50
2017-10-17T10:05:52.531Z,39.88
2017-10-17T10:06:58.186Z,40.21
2017-10-17T10:08:03.796Z,40.40
2017-10-17T10:09:10.347Z,40.71
2017-10-17T10:10:16.891Z,40.73
2017-10-17T10:11:23.480Z,40.49
2017-10-17T10:12:29.099Z,40.32
2017-10-17T10:13:35.660Z,40.74
2017-10-17T10:14:42.032Z,40.96
2017-10-17T10:15:47.820Z,40.84
2017-10-17T10:16:53.656Z,40.71
2017-10-17T10:17:59.447Z,40.50
2017-10-17T10:19:06.018Z,40.56
2017-10-17T10:20:11.807Z,40.98
2017-10-17T10:21:17.595Z,41.18
2017-10-17T10:22:24.207Z,41.30
2017-10-17T10:23:30.008Z,41.44
2017-10-17T10:24:35.629Z,41.16
2017-10-17T10:25:42.180Z,41.35
2017-10-17T10:26:47.839Z,41.43
2017-10-17T10:27:54.416Z,41.48
2017-10-17T10:29:00.227Z,41.70
2017-10-17T10:30:06.775Z,41.68
2017-10-17T10:31:12.590Z,41.79
2017-10-17T10:32:18.375Z,42.10
2017-10-17T10:33:25.170Z,42.06
2017-10-17T10:34:31.032Z,42.46
2017-10-17T10:35:36.644Z,42.55
2017-10-17T10:36:42.518Z,42.81
2017-10-17T10:37:48.315Z,42.98
2017-10-17T10:38:53.974Z,43.13
2017-10-17T10:39:59.808Z,43.36
2017-10-17T10:41:06.356Z,43.10
2017-10-17T10:42:12.915Z,43.20
2017-10-17T10:43:19.501Z,43.46
2017-10-17T10:44:25.320Z,43.66
2017-10-17T10:45:31.910Z,43.95
2017-10-17T10:46:37.719Z,44.35
2017-10-17T10:47:44.271Z,44.67
2017-10-17T10:48:50.060Z,44.78
2017-10-17T10:49:55.872Z,45.07
2017-10-17T10:51:02.428Z,44.96
2017-10-17T10:52:08.988Z,44.88
2017-10-17T10:53:15.559Z,45.04
2017-10-17T10:54:22.114Z,45.42
2017-10-17T10:55:28.692Z,45.37
2017-10-17T10:56:34.489Z,45.61
2017-10-17T10:57:41.521Z,45.57
2017-10-17T10:58:47.579Z,45.77
2017-10-17T10:59:53.417Z,46.24
2017-10-17T11:00:59.245Z,46.64
2017-10-17T11:02:05.039Z,46.76
2017-10-17T11:03:11.604Z,47.07
2017-10-17T11:04:17.242Z,47.17
2017-10-17T11:05:23.036Z,47.43
2017-10-17T11:06:28.686Z,47.43
2017-10-17T11:07:34.516Z,47.61
2017-10-17T11:08:40.478Z,47.73
2017-10-17T11:09:46.100Z,47.66
2017-10-17T11:10:51.897Z,47.68
2017-10-17T11:11:57.747Z,47.96
2017-10-17T11:13:04.313Z,48.09
2017-10-17T11:14:10.371Z,48.26
2017-10-17T11:15:16.965Z,48.34
2017-10-17T11:16:22.761Z,48.37
2017-10-17T11:17:28.571Z,48.65
2017-10-17T11:18:34.362Z,48.78
2017-10-17T11:19:40.738Z,48.77
2017-10-17T11:20:46.541Z,48.66
2017-10-17T11:21:52.148Z,48.51
2017-10-17T11:22:57.962Z,48.66
2017-10-17T11:24:03.760Z,48.59
2017-10-17T11:25:09.556Z,48.65
2017-10-17T11:26:15.377Z,48.94
2017-10-17T11:27:20.987Z,48.87
2017-10-17T11:28:26.809Z,48.93
2017-10-17T11:29:32.605Z,48.86
2017-10-17T11:30:38.561Z,48.87
2017-10-17T11:31:44.351Z,48.96
2017-10-17T11:32:50.139Z,48.88
2017-10-17T11:33:55.792Z,48.74
2017-10-17T11:35:01.330Z,48.72
2017-10-17T11:36:06.947Z,48.76
2017-10-17T11:37:12.725Z,48.60
2017-10-17T11:38:18.518Z,48.69
2017-10-17T11:39:24.923Z,48.49
2017-10-17T11:40:47.536Z,48.43
2017-10-17T11:42:10.102Z,48.38
2017-10-17T11:43:32.873Z,48.27
2017-10-17T11:44:38.817Z,48.30
2017-10-17T11:45:44.611Z,48.37
2017-10-17T11:46:50.223Z,48.38
2017-10-17T11:47:56.795Z,48.50
2017-10-17T11:49:02.837Z,48.37
2017-10-17T11:50:08.509Z,48.37
2017-10-17T11:51:14.304Z,48.50
2017-10-17T11:52:20.876Z,48.40
2017-10-17T11:53:26.696Z,48.27
2017-10-17T11:54:33.247Z,48.42
2017-10-17T11:55:38.771Z,48.58
2017-10-17T11:56:44.880Z,48.56
2017-10-17T11:57:50.705Z,48.39
2017-10-17T11:58:57.332Z,48.34
2017-10-17T12:00:03.777Z,48.24
2017-10-17T12:01:09.993Z,48.39
2017-10-17T12:02:16.043Z,48.41
2017-10-17T12:03:21.887Z,48.53
2017-10-17T12:04:27.678Z,48.52
2017-10-17T12:05:34.124Z,48.39
2017-10-17T12:06:40.066Z,48.20
2017-10-17T12:07:46.798Z,47.91
2017-10-17T12:08:52.435Z,47.51
2017-10-17T12:09:58.277Z,47.08
2017-10-17T12:11:03.885Z,46.80
2017-10-17T12:12:09.109Z,46.71
2017-10-17T12:13:14.426Z,46.59
2017-10-17T12:14:20.253Z,46.45
2017-10-17T12:15:25.960Z,46.37
2017-10-17T12:16:31.786Z,46.43
2017-10-17T12:17:37.727Z,46.45
2017-10-17T12:18:44.461Z,46.09
2017-10-17T12:19:50.266Z,45.86
2017-10-17T12:20:56.066Z,45.67
2017-10-17T12:22:01.867Z,45.76
2017-10-17T12:23:07.700Z,45.66
2017-10-17T12:24:13.900Z,45.61
2017-10-17T12:25:20.092Z,45.72
2017-10-17T12:26:26.061Z,45.77
2017-10-17T12:27:31.897Z,45.54
2017-10-17T12:28:37.939Z,45.14
2017-10-17T12:29:43.940Z,45.29
2017-10-17T12:30:49.827Z,45.36
2017-10-17T12:31:55.673Z,45.23
2017-10-17T12:33:01.519Z,45.08
2017-10-17T12:34:07.460Z,45.06
2017-10-17T12:35:13.454Z,45.08
2017-10-17T12:36:19.343Z,45.16
2017-10-17T12:37:25.405Z,45.23
2017-10-17T12:38:31.406Z,45.40
2017-10-17T12:39:38.152Z,45.33
2017-10-17T12:40:44.157Z,45.41
2017-10-17T12:41:49.820Z,45.08
2017-10-17T12:42:56.346Z,45.24
2017-10-17T12:44:02.343Z,45.37
2017-10-17T12:45:09.205Z,45.19
2017-10-17T12:46:16.513Z,45.32
2017-10-17T12:47:22.602Z,45.34
2017-10-17T12:48:29.358Z,45.40
2017-10-17T12:49:36.301Z,45.40
2017-10-17T12:50:42.528Z,45.31
2017-10-17T12:51:49.139Z,45.20
2017-10-17T12:52:54.847Z,45.11
2017-10-17T12:54:01.511Z,45.08
2017-10-17T12:55:08.083Z,45.07
2017-10-17T12:56:13.992Z,45.17
2017-10-17T12:57:19.805Z,45.10
2017-10-17T12:58:25.531Z,45.16
2017-10-17T12:59:31.374Z,45.14
2017-10-17T13:00:37.353Z,45.12
2017-10-17T13:01:43.022Z,45.16
2017-10-17T13:02:49.034Z,45.14
2017-10-17T13:03:55.332Z,45.17
2017-10-17T13:05:01.204Z,45.10
2017-10-17T13:06:07.078Z,45.19
2017-10-17T13:07:12.838Z,45.25
2017-10-17T13:08:18.707Z,45.30
2017-10-17T13:09:25.418Z,45.33
2017-10-17T13:10:31.123Z,45.19
2017-10-17T13:11:36.678Z,45.03
2017-10-17T13:12:42.566Z,44.92
2017-10-17T13:13:48.394Z,44.78
2017-10-17T13:14:54.412Z,44.66
2017-10-17T13:15:59.885Z,44.56
2017-10-17T13:17:05.248Z,44.40
2017-10-17T13:18:11.141Z,44.18
2017-10-17T13:19:16.390Z,43.79
2017-10-17T13:20:22.356Z,43.75
2017-10-17T13:21:28.147Z,43.60
2017-10-17T13:22:33.672Z,43.57
2017-10-17T13:23:39.704Z,43.48
2017-10-17T13:24:45.546Z,43.52
2017-10-17T13:25:52.205Z,43.49
2017-10-17T13:26:58.892Z,43.43
2017-10-17T13:28:04.852Z,43.33
2017-10-17T13:29:10.887Z,43.22
2017-10-17T13:30:16.909Z,43.25
2017-10-17T13:31:23.603Z,43.11
2017-10-17T13:32:29.481Z,43.22
2017-10-17T13:33:35.392Z,43.32
2017-10-17T13:34:41.350Z,43.38
2017-10-17T13:35:47.386Z,43.43
2017-10-17T13:36:53.084Z,43.35
2017-10-17T13:37:58.931Z,43.27
2017-10-17T13:39:04.757Z,43.29
2017-10-17T13:40:10.818Z,43.20
2017-10-17T13:41:17.469Z,43.14
2017-10-17T13:42:23.567Z,43.18
2017-10-17T13:43:29.520Z,43.20
2017-10-17T13:44:35.757Z,43.15
2017-10-17T13:45:42.582Z,43.07
2017-10-17T13:46:48.401Z,43.02
2017-10-17T13:47:54.234Z,43.00
2017-10-17T13:49:00.312Z,42.67
2017-10-17T13:50:06.163Z,42.55
2017-10-17T13:51:12.070Z,42.53
2017-10-17T13:52:18.009Z,42.69
2017-10-17T13:53:23.954Z,42.75
2017-10-17T13:54:30.106Z,42.87
2017-10-17T13:55:36.155Z,42.87
2017-10-17T13:56:42.235Z,43.03
2017-10-17T13:57:48.267Z,43.10
2017-10-17T13:58:54.196Z,43.13
2017-10-17T14:00:00.305Z,43.22
2017-10-17T14:01:07.524Z,43.26
2017-10-17T14:02:13.470Z,43.26
2017-10-17T14:03:19.060Z,43.19
2017-10-17T14:04:25.728Z,43.21
2017-10-17T14:05:32.488Z,43.27
2017-10-17T14:06:38.362Z,43.38
2017-10-17T14:07:44.948Z,43.44
2017-10-17T14:08:50.929Z,43.50
2017-10-17T14:09:56.998Z,43.31
2017-10-17T14:11:02.929Z,43.33
2017-10-17T14:12:08.886Z,43.30
2017-10-17T14:13:14.760Z,43.40
2017-10-17T14:14:20.093Z,43.49
2017-10-17T14:16:24.836Z,43.43
2017-10-17T14:17:30.831Z,43.52
2017-10-17T14:18:36.763Z,43.46
2017-10-17T14:19:43.357Z,43.33
2017-10-17T14:20:49.234Z,43.40
2017-10-17T14:21:55.432Z,43.09
2017-10-17T14:23:01.217Z,43.33
2017-10-17T14:24:07.227Z,43.48
2017-10-17T14:25:13.220Z,43.51
2017-10-17T14:26:19.828Z,43.54
2017-10-17T14:27:25.780Z,43.60
2017-10-17T14:28:31.412Z,43.67
2017-10-17T14:29:37.501Z,43.74
2017-10-17T14:30:43.573Z,43.88
2017-10-17T14:31:50.277Z,43.82
2017-10-17T14:32:56.170Z,43.87
2017-10-17T14:34:02.884Z,43.96
2017-10-17T14:35:08.831Z,44.04
2017-10-17T14:36:14.684Z,44.22
2017-10-17T14:37:20.701Z,44.25
2017-10-17T14:38:27.291Z,44.29
2017-10-17T14:39:33.426Z,44.30
2017-10-17T14:40:39.412Z,44.33
2017-10-17T14:41:45.443Z,44.36
2017-10-17T14:42:51.273Z,44.31
2017-10-17T14:43:57.218Z,44.51
2017-10-17T14:45:02.832Z,44.40
2017-10-17T14:46:09.545Z,44.42
2017-10-17T14:47:15.157Z,44.26
2017-10-17T14:48:20.794Z,44.43
2017-10-17T14:49:26.640Z,44.57
2017-10-17T14:50:32.468Z,44.57
2017-10-17T14:51:38.973Z,44.64
2017-10-17T14:52:44.823Z,44.51
2017-10-17T14:53:50.446Z,44.51
2017-10-17T14:54:56.252Z,44.67
2017-10-17T14:56:02.843Z,44.67
2017-10-17T14:57:08.680Z,44.72
2017-10-17T14:58:14.604Z,44.88